Time;durP1;ratioP1;P1;durP2;ratioP2;P2;SDS_P1;SDS_P2;PMS_P1;PMS_P2;Temp;Humidity;BMP_temperature;BMP_pressure;BME280_temperature;BME280_humidity;BME280_pressure;Samples;Min_cycle;Max_cycle;Signal;HPM_P1;HPM_P2
2023/09/03 00:01:11;;;;;;;1.75;1.05;;;;;;;;;;5111487;28;20542;-64
2023/09/03 00:03:38;;;;;;;0.90;0.70;;;;;;;;;;5108717;28;20031;-64
2023/09/03 00:06:05;;;;;;;1.77;1.10;;;;;;;;;;5092420;28;20024;-64
2023/09/03 00:08:31;;;;;;;1.45;1.00;;;;;;;;;;5087951;28;20058;-64
2023/09/03 00:10:58;;;;;;;3.35;1.58;;;;;;;;;;5089206;28;20572;-64
2023/09/03 00:13:25;;;;;;;2.40;1.60;;;;;;;;;;5092898;28;20050;-63
2023/09/03 00:15:51;;;;;;;3.83;1.70;;;;;;;;;;5106472;28;20036;-63
2023/09/03 00:18:18;;;;;;;1.25;0.90;;;;;;;;;;5112968;28;20020;-63
2023/09/03 00:20:58;;;;;;;5.50;1.48;;;;;;;;;;5113429;28;20051;-63
2023/09/03 00:23:25;;;;;;;0.75;0.60;;;;;;;;;;5110853;28;20022;-64
2023/09/03 00:25:52;;;;;;;1.60;0.90;;;;;;;;;;5094268;28;20119;-63
2023/09/03 00:28:18;;;;;;;2.47;1.48;;;;;;;;;;5087895;28;20445;-64
2023/09/03 00:30:45;;;;;;;3.00;1.52;;;;;;;;;;5087787;28;20509;-64
2023/09/03 00:33:12;;;;;;;1.15;0.95;;;;;;;;;;5089123;28;20504;-63
2023/09/03 00:35:40;;;;;;;1.40;1.05;;;;;;;;;;5103633;28;20107;-64
2023/09/03 00:38:07;;;;;;;3.77;1.53;;;;;;;;;;5112872;28;20027;-64
2023/09/03 00:40:40;;;;;;;1.67;1.00;;;;;;;;;;5112158;28;20027;-64
2023/09/03 00:43:06;;;;;;;3.20;1.63;;;;;;;;;;5113038;28;20032;-64
2023/09/03 00:45:34;;;;;;;3.43;1.90;;;;;;;;;;5100252;28;20028;-64
2023/09/03 00:48:00;;;;;;;2.50;1.43;;;;;;;;;;5087462;28;20103;-63
2023/09/03 00:50:28;;;;;;;1.13;0.93;;;;;;;;;;5087477;28;20058;-64
2023/09/03 00:52:55;;;;;;;1.87;1.00;;;;;;;;;;5087385;28;20056;-64
2023/09/03 00:55:23;;;;;;;0.97;0.73;;;;;;;;;;5096715;28;20102;-64
2023/09/03 00:57:50;;;;;;;4.63;1.20;;;;;;;;;;5100144;28;20031;-64
2023/09/03 01:00:17;;;;;;;1.60;1.10;;;;;;;;;;5092366;28;20028;-63
2023/09/03 01:02:44;;;;;;;1.43;1.03;;;;;;;;;;5092566;28;20150;-64
2023/09/03 01:05:13;;;;;;;1.60;0.93;;;;;;;;;;5098898;28;20027;-63
2023/09/03 01:07:39;;;;;;;0.83;0.60;;;;;;;;;;5110527;28;20476;-64
2023/09/03 01:10:06;;;;;;;2.40;1.10;;;;;;;;;;5107651;28;20016;-63
2023/09/03 01:12:37;;;;;;;1.80;0.90;;;;;;;;;;5104775;28;20173;-64
2023/09/03 01:15:03;;;;;;;3.00;1.10;;;;;;;;;;5087005;28;20020;-64
2023/09/03 01:17:39;;;;;;;2.87;1.33;;;;;;;;;;5088634;28;20051;-64
2023/09/03 01:20:06;;;;;;;1.13;0.87;;;;;;;;;;5092421;28;20782;-64
2023/09/03 01:22:35;;;;;;;2.50;1.33;;;;;;;;;;5093968;28;20023;-64
2023/09/03 01:25:05;;;;;;;3.53;1.17;;;;;;;;;;5112243;28;20028;-64
2023/09/03 01:27:42;;;;;;;2.43;1.37;;;;;;;;;;5112868;28;20131;-64
2023/09/03 01:30:09;;;;;;;2.33;1.53;;;;;;;;;;5114322;28;20051;-64
2023/09/03 01:32:37;;;;;;;1.33;1.07;;;;;;;;;;5108990;28;20111;-64
2023/09/03 01:35:04;;;;;;;1.63;1.10;;;;;;;;;;5073174;28;20059;-64
2023/09/03 01:37:32;;;;;;;2.50;1.33;;;;;;;;;;5090759;28;20055;-64
2023/09/03 01:39:58;;;;;;;3.87;1.33;;;;;;;;;;5092783;28;20074;-64
2023/09/03 01:42:25;;;;;;;3.37;1.20;;;;;;;;;;5096301;28;20035;-64
2023/09/03 01:44:53;;;;;;;2.30;1.30;;;;;;;;;;5116326;28;20030;-64
2023/09/03 01:47:34;;;;;;;3.70;1.50;;;;;;;;;;5115262;28;20035;-64
2023/09/03 01:50:01;;;;;;;3.27;1.23;;;;;;;;;;5115804;28;20059;-63
2023/09/03 01:52:35;;;;;;;1.23;1.07;;;;;;;;;;5113081;28;20027;-64
2023/09/03 01:55:02;;;;;;;1.92;1.15;;;;;;;;;;5090819;28;20073;-64
2023/09/03 01:57:30;;;;;;;2.37;1.63;;;;;;;;;;5090842;28;20043;-64
2023/09/03 01:59:58;;;;;;;2.10;1.60;;;;;;;;;;5090829;28;20055;-64
2023/09/03 02:02:25;;;;;;;15.43;1.50;;;;;;;;;;5093018;28;20020;-65
2023/09/03 02:04:52;;;;;;;4.23;2.10;;;;;;;;;;5115199;28;20055;-63
2023/09/03 02:07:19;;;;;;;3.27;2.17;;;;;;;;;;5115852;28;20525;-64
2023/09/03 02:09:45;;;;;;;2.27;1.47;;;;;;;;;;5116076;28;20108;-64
2023/09/03 02:12:12;;;;;;;2.47;1.50;;;;;;;;;;5115931;28;20044;-63
2023/09/03 02:14:39;;;;;;;4.63;2.60;;;;;;;;;;5095225;28;20048;-63
2023/09/03 02:17:05;;;;;;;3.13;1.90;;;;;;;;;;5090312;28;20050;-64
2023/09/03 02:19:32;;;;;;;4.07;2.83;;;;;;;;;;5090336;28;20032;-64
2023/09/03 02:21:59;;;;;;;13.87;2.43;;;;;;;;;;5089895;28;20048;-64
2023/09/03 02:24:25;;;;;;;3.60;1.97;;;;;;;;;;5106802;28;20114;-64
2023/09/03 02:26:52;;;;;;;2.83;1.73;;;;;;;;;;5115755;28;20024;-64
2023/09/03 02:29:18;;;;;;;6.10;2.73;;;;;;;;;;5114297;28;20386;-64
2023/09/03 02:31:45;;;;;;;3.63;2.17;;;;;;;;;;5115477;28;20035;-64
2023/09/03 02:34:13;;;;;;;3.27;2.27;;;;;;;;;;5101985;28;20043;-64
2023/09/03 02:36:40;;;;;;;3.27;1.93;;;;;;;;;;5092671;28;20030;-64
2023/09/03 02:39:06;;;;;;;3.40;1.83;;;;;;;;;;5089814;28;20020;-64
2023/09/03 02:41:33;;;;;;;2.93;2.17;;;;;;;;;;5089144;28;20027;-64
2023/09/03 02:44:01;;;;;;;2.37;1.80;;;;;;;;;;5100862;28;20031;-65
2023/09/03 02:46:28;;;;;;;2.90;1.83;;;;;;;;;;5111525;28;20076;-64
2023/09/03 02:48:55;;;;;;;5.80;2.40;;;;;;;;;;5115210;28;20482;-64
2023/09/03 02:51:22;;;;;;;7.60;3.10;;;;;;;;;;5115306;28;20054;-64
2023/09/03 02:53:48;;;;;;;2.37;1.77;;;;;;;;;;5104973;28;20028;-64
2023/09/03 02:56:15;;;;;;;19.50;2.73;;;;;;;;;;5100435;28;20030;-64
2023/09/03 02:58:42;;;;;;;3.27;2.00;;;;;;;;;;5112722;28;20107;-65
2023/09/03 03:01:10;;;;;;;3.67;1.87;;;;;;;;;;5109783;28;20027;-64
2023/09/03 03:03:37;;;;;;;3.87;2.30;;;;;;;;;;5100978;28;20028;-64
2023/09/03 03:06:04;;;;;;;3.13;2.17;;;;;;;;;;5089375;28;20443;-65
2023/09/03 03:08:30;;;;;;;3.67;2.47;;;;;;;;;;5090525;28;20161;-64
2023/09/03 03:11:06;;;;;;;4.57;2.23;;;;;;;;;;5094334;28;20410;-64
2023/09/03 03:13:33;;;;;;;3.33;2.00;;;;;;;;;;5099944;28;20080;-64
2023/09/03 03:16:05;;;;;;;3.93;2.43;;;;;;;;;;5114528;28;20024;-64
2023/09/03 03:18:32;;;;;;;2.63;1.93;;;;;;;;;;5114774;28;20072;-64
2023/09/03 03:21:24;;;;;;;1.87;1.43;;;;;;;;;;5112608;28;20023;-64
2023/09/03 03:23:51;;;;;;;6.13;2.80;;;;;;;;;;5098221;28;20122;-64
2023/09/03 03:26:21;;;;;;;4.03;2.37;;;;;;;;;;5088955;28;20121;-64
2023/09/03 03:28:48;;;;;;;6.87;3.17;;;;;;;;;;5089066;28;20402;-66
2023/09/03 03:31:19;;;;;;;4.57;2.80;;;;;;;;;;5091135;28;20095;-64
2023/09/03 03:33:46;;;;;;;4.17;2.30;;;;;;;;;;5099384;28;20039;-64
2023/09/03 03:36:13;;;;;;;2.27;1.77;;;;;;;;;;5113239;28;20422;-64
2023/09/03 03:38:40;;;;;;;4.30;2.87;;;;;;;;;;5114161;28;20041;-64
2023/09/03 03:41:17;;;;;;;5.50;2.73;;;;;;;;;;5114187;28;20471;-64
2023/09/03 03:43:44;;;;;;;13.70;2.47;;;;;;;;;;5105076;28;20383;-64
2023/09/03 03:46:14;;;;;;;3.83;2.03;;;;;;;;;;5088193;28;20027;-67
2023/09/03 03:48:40;;;;;;;4.67;2.43;;;;;;;;;;5088362;28;20020;-64
2023/09/03 03:51:07;;;;;;;3.60;2.40;;;;;;;;;;5088530;28;20442;-64
2023/09/03 03:53:34;;;;;;;3.03;2.13;;;;;;;;;;5093470;28;20035;-64
2023/09/03 03:56:10;;;;;;;5.00;2.70;;;;;;;;;;5113847;28;20020;-65
2023/09/03 03:58:38;;;;;;;3.40;2.30;;;;;;;;;;5113867;28;20023;-64
2023/09/03 04:01:12;;;;;;;6.43;2.57;;;;;;;;;;5113404;28;20374;-64
2023/09/03 04:03:38;;;;;;;2.80;1.95;;;;;;;;;;5109399;28;20026;-64
2023/09/03 04:06:05;;;;;;;4.13;2.10;;;;;;;;;;5090034;28;20124;-64
2023/09/03 04:08:33;;;;;;;4.73;2.57;;;;;;;;;;5088229;28;20024;-64
2023/09/03 04:11:00;;;;;;;5.13;3.17;;;;;;;;;;5088179;28;20016;-64
2023/09/03 04:13:27;;;;;;;5.87;2.20;;;;;;;;;;5090056;28;20386;-64
2023/09/03 04:15:54;;;;;;;2.03;1.50;;;;;;;;;;5110842;28;20024;-64
2023/09/03 04:18:21;;;;;;;6.77;1.93;;;;;;;;;;5113598;28;20448;-64
2023/09/03 04:20:50;;;;;;;4.67;2.33;;;;;;;;;;5112432;28;20378;-64
2023/09/03 04:23:17;;;;;;;3.43;2.13;;;;;;;;;;5112323;28;20534;-64
2023/09/03 04:25:43;;;;;;;3.07;2.20;;;;;;;;;;5091689;28;20027;-64
2023/09/03 04:28:10;;;;;;;4.57;2.47;;;;;;;;;;5090005;28;20020;-64
2023/09/03 04:30:38;;;;;;;4.50;2.47;;;;;;;;;;5087563;28;20156;-64
2023/09/03 04:33:07;;;;;;;11.50;2.80;;;;;;;;;;5087801;28;20036;-64
2023/09/03 04:35:36;;;;;;;14.30;2.13;;;;;;;;;;5106979;28;20123;-64
2023/09/03 04:38:03;;;;;;;6.37;3.17;;;;;;;;;;5110748;28;20019;-64
2023/09/03 04:40:34;;;;;;;11.23;2.57;;;;;;;;;;5112893;28;20032;-64
2023/09/03 04:43:01;;;;;;;5.80;2.13;;;;;;;;;;5113036;28;20023;-64
2023/09/03 04:45:27;;;;;;;3.03;2.23;;;;;;;;;;5095235;28;20043;-64
2023/09/03 04:47:55;;;;;;;3.00;1.87;;;;;;;;;;5092657;28;20059;-64
2023/09/03 04:50:22;;;;;;;17.83;3.87;;;;;;;;;;5089551;28;20016;-64
2023/09/03 04:52:48;;;;;;;3.90;2.83;;;;;;;;;;5087537;28;20383;-64
2023/09/03 04:55:15;;;;;;;4.53;2.67;;;;;;;;;;5101026;28;20442;-64
2023/09/03 04:57:42;;;;;;;4.00;2.97;;;;;;;;;;5106297;28;20103;-64
2023/09/03 05:00:10;;;;;;;3.97;2.63;;;;;;;;;;5109165;28;20031;-64
2023/09/03 05:02:37;;;;;;;3.73;2.47;;;;;;;;;;5112716;28;20031;-65
2023/09/03 05:05:04;;;;;;;6.57;2.93;;;;;;;;;;5102105;28;20035;-64
2023/09/03 05:07:30;;;;;;;3.10;1.33;;;;;;;;;;5093235;28;20042;-65
2023/09/03 05:09:57;;;;;;;1.10;0.90;;;;;;;;;;5103297;28;20089;-64
2023/09/03 05:12:23;;;;;;;1.27;0.90;;;;;;;;;;5109902;28;20043;-64
2023/09/03 05:14:50;;;;;;;1.00;0.63;;;;;;;;;;5107504;28;20035;-64
2023/09/03 05:17:17;;;;;;;0.43;0.33;;;;;;;;;;5105674;28;20031;-64
2023/09/03 05:19:44;;;;;;;9.17;1.00;;;;;;;;;;5107621;28;20374;-64
2023/09/03 05:22:10;;;;;;;0.93;0.60;;;;;;;;;;5108984;28;20111;-64
2023/09/03 05:24:37;;;;;;;1.23;0.70;;;;;;;;;;5112640;28;20057;-64
2023/09/03 05:27:04;;;;;;;4.43;0.67;;;;;;;;;;5094251;28;20020;-64
2023/09/03 05:29:30;;;;;;;0.50;0.43;;;;;;;;;;5092180;28;20474;-64
2023/09/03 05:31:57;;;;;;;1.03;0.70;;;;;;;;;;5091746;28;20020;-64
2023/09/03 05:34:25;;;;;;;1.03;0.30;;;;;;;;;;5089902;28;20097;-64
2023/09/03 05:36:51;;;;;;;3.00;1.83;;;;;;;;;;5096148;28;20031;-64
2023/09/03 05:39:18;;;;;;;3.03;2.10;;;;;;;;;;5107576;28;20028;-64
2023/09/03 05:41:45;;;;;;;6.10;2.63;;;;;;;;;;5088201;28;20054;-64
2023/09/03 05:44:15;;;;;;;6.50;3.23;;;;;;;;;;5088930;28;20031;-64
2023/09/03 05:46:43;;;;;;;4.47;2.97;;;;;;;;;;5091943;28;20028;-64
2023/09/03 05:49:09;;;;;;;7.50;2.93;;;;;;;;;;5091904;28;20024;-64
2023/09/03 05:51:36;;;;;;;4.63;2.87;;;;;;;;;;5102773;28;20425;-64
2023/09/03 05:54:03;;;;;;;5.03;3.57;;;;;;;;;;5091958;28;20417;-63
2023/09/03 05:56:30;;;;;;;3.53;2.50;;;;;;;;;;5089749;28;20036;-64
2023/09/03 05:59:02;;;;;;;4.13;2.77;;;;;;;;;;5087154;28;20107;-64
2023/09/03 06:01:29;;;;;;;12.03;2.27;;;;;;;;;;5106894;28;20382;-64
2023/09/03 06:03:55;;;;;;;5.37;3.73;;;;;;;;;;5107133;28;20022;-64
2023/09/03 06:06:22;;;;;;;4.37;2.87;;;;;;;;;;5108900;28;20027;-63
2023/09/03 06:08:49;;;;;;;14.00;3.37;;;;;;;;;;5112085;28;20036;-64
2023/09/03 06:11:15;;;;;;;3.03;1.93;;;;;;;;;;5092971;28;20028;-64
2023/09/03 06:13:42;;;;;;;7.50;3.23;;;;;;;;;;5091879;28;20051;-64
2023/09/03 06:16:08;;;;;;;3.33;2.47;;;;;;;;;;5093657;28;20538;-64
2023/09/03 06:18:35;;;;;;;10.03;3.03;;;;;;;;;;5092977;28;20024;-63
2023/09/03 06:21:02;;;;;;;5.17;3.03;;;;;;;;;;5106770;28;20570;-64
2023/09/03 06:23:28;;;;;;;3.30;2.27;;;;;;;;;;5110580;28;20047;-64
2023/09/03 06:25:55;;;;;;;4.07;2.73;;;;;;;;;;5110470;28;20107;-64
2023/09/03 06:28:22;;;;;;;8.03;3.53;;;;;;;;;;5111985;28;20540;-65
2023/09/03 06:30:49;;;;;;;5.57;3.03;;;;;;;;;;5100742;28;20120;-64
2023/09/03 06:33:16;;;;;;;3.90;2.73;;;;;;;;;;5095110;28;20032;-65
2023/09/03 06:35:42;;;;;;;6.00;3.20;;;;;;;;;;5095016;28;20032;-63
2023/09/03 06:38:09;;;;;;;8.97;3.57;;;;;;;;;;5101744;28;20106;-64
2023/09/03 06:40:35;;;;;;;5.27;2.90;;;;;;;;;;5113542;28;20058;-64
2023/09/03 06:43:02;;;;;;;5.13;3.33;;;;;;;;;;5110295;28;20062;-64
2023/09/03 06:45:30;;;;;;;6.20;3.17;;;;;;;;;;5110203;28;20474;-64
2023/09/03 06:47:57;;;;;;;20.73;3.10;;;;;;;;;;5103670;28;20028;-63
2023/09/03 06:50:23;;;;;;;3.97;2.50;;;;;;;;;;5090353;28;20020;-64
2023/09/03 06:52:50;;;;;;;3.50;2.30;;;;;;;;;;5094753;28;20360;-64
2023/09/03 06:55:17;;;;;;;6.10;2.73;;;;;;;;;;5095023;28;20074;-64
2023/09/03 06:57:43;;;;;;;3.87;3.00;;;;;;;;;;5097083;28;20111;-64
2023/09/03 07:00:11;;;;;;;13.73;3.07;;;;;;;;;;5115027;28;20114;-64
2023/09/03 07:02:37;;;;;;;4.00;2.20;;;;;;;;;;5113450;28;20095;-63
2023/09/03 07:05:04;;;;;;;3.13;2.10;;;;;;;;;;5110044;28;20267;-64
2023/09/03 07:07:31;;;;;;;2.63;2.00;;;;;;;;;;5108164;28;20088;-64
2023/09/03 07:09:57;;;;;;;6.33;2.27;;;;;;;;;;5089388;28;20112;-63
2023/09/03 07:12:24;;;;;;;2.40;1.73;;;;;;;;;;5090133;28;20082;-64
2023/09/03 07:14:51;;;;;;;7.60;1.67;;;;;;;;;;5094204;28;20073;-64
2023/09/03 07:17:18;;;;;;;3.43;2.47;;;;;;;;;;5094345;28;20017;-64
2023/09/03 07:19:44;;;;;;;13.27;1.70;;;;;;;;;;5113164;28;20050;-64
2023/09/03 07:22:11;;;;;;;3.03;1.67;;;;;;;;;;5114457;28;20028;-64
2023/09/03 07:24:38;;;;;;;3.30;1.77;;;;;;;;;;5113468;28;20103;-64
2023/09/03 07:27:05;;;;;;;1.60;1.20;;;;;;;;;;5109226;28;20016;-64
2023/09/03 07:29:31;;;;;;;1.07;0.90;;;;;;;;;;5092143;28;20020;-64
2023/09/03 07:31:58;;;;;;;1.67;1.33;;;;;;;;;;5088817;28;20040;-64
2023/09/03 07:34:25;;;;;;;3.83;1.70;;;;;;;;;;5089188;28;20501;-64
2023/09/03 07:36:52;;;;;;;2.53;1.57;;;;;;;;;;5094006;28;20501;-64
2023/09/03 07:39:18;;;;;;;3.17;1.40;;;;;;;;;;5111881;28;20402;-64
2023/09/03 07:41:46;;;;;;;1.87;1.40;;;;;;;;;;5114265;28;20024;-64
2023/09/03 07:44:13;;;;;;;3.00;1.60;;;;;;;;;;5114117;28;20066;-64
2023/09/03 07:46:40;;;;;;;2.37;1.47;;;;;;;;;;5113404;28;20024;-64
2023/09/03 07:49:06;;;;;;;1.17;0.90;;;;;;;;;;5091962;28;20050;-64
2023/09/03 07:51:33;;;;;;;2.33;1.50;;;;;;;;;;5088522;28;20027;-64
2023/09/03 07:53:59;;;;;;;1.23;1.00;;;;;;;;;;5088469;28;20024;-64
2023/09/03 07:56:27;;;;;;;2.27;1.17;;;;;;;;;;5088464;28;20456;-65
2023/09/03 07:58:53;;;;;;;3.20;1.67;;;;;;;;;;5107147;28;20427;-64
2023/09/03 08:01:20;;;;;;;1.37;1.03;;;;;;;;;;5113955;28;20103;-64
2023/09/03 08:03:47;;;;;;;1.53;1.20;;;;;;;;;;5113718;28;20019;-64
2023/09/03 08:06:14;;;;;;;1.33;0.97;;;;;;;;;;5113685;28;20023;-63
2023/09/03 08:08:40;;;;;;;1.90;1.23;;;;;;;;;;5101088;28;20126;-63
2023/09/03 08:11:07;;;;;;;3.00;1.40;;;;;;;;;;5087873;28;20510;-64
2023/09/03 08:13:34;;;;;;;5.07;1.40;;;;;;;;;;5088151;28;20085;-64
2023/09/03 08:16:00;;;;;;;1.97;1.37;;;;;;;;;;5088111;28;20027;-64
2023/09/03 08:18:27;;;;;;;1.67;1.17;;;;;;;;;;5097500;28;20031;-64
2023/09/03 08:20:54;;;;;;;1.17;0.90;;;;;;;;;;5113314;28;20035;-63
2023/09/03 08:23:20;;;;;;;1.77;1.37;;;;;;;;;;5113462;28;20043;-63
2023/09/03 08:25:47;;;;;;;1.70;1.10;;;;;;;;;;5113311;28;20034;-63
2023/09/03 08:28:13;;;;;;;2.80;1.17;;;;;;;;;;5105900;28;20020;-64
2023/09/03 08:30:40;;;;;;;2.17;1.60;;;;;;;;;;5091641;28;20028;-63
2023/09/03 08:33:07;;;;;;;1.47;0.93;;;;;;;;;;5087590;28;20039;-64
2023/09/03 08:35:36;;;;;;;2.47;1.57;;;;;;;;;;5087960;28;20494;-63
2023/09/03 08:38:03;;;;;;;2.67;1.43;;;;;;;;;;5091986;28;20474;-63
2023/09/03 08:40:32;;;;;;;2.97;1.50;;;;;;;;;;5107981;28;20019;-64
2023/09/03 08:42:59;;;;;;;1.57;1.03;;;;;;;;;;5112601;27;20107;-63
2023/09/03 08:45:27;;;;;;;2.67;1.33;;;;;;;;;;5113329;28;20032;-63
2023/09/03 08:47:55;;;;;;;1.77;1.30;;;;;;;;;;5109064;28;20052;-64
2023/09/03 08:50:23;;;;;;;2.03;1.40;;;;;;;;;;5092732;28;20028;-63
2023/09/03 08:52:52;;;;;;;2.17;1.43;;;;;;;;;;5092439;28;20437;-63
2023/09/03 08:55:19;;;;;;;5.57;1.47;;;;;;;;;;5087575;28;20024;-64
2023/09/03 08:57:46;;;;;;;1.90;1.33;;;;;;;;;;5089090;28;20363;-63
2023/09/03 09:00:14;;;;;;;3.53;1.70;;;;;;;;;;5107815;28;20035;-63
2023/09/03 09:02:43;;;;;;;2.87;1.90;;;;;;;;;;5107920;28;20377;-63
2023/09/03 09:05:10;;;;;;;4.50;2.40;;;;;;;;;;5112572;28;20107;-63
2023/09/03 09:07:37;;;;;;;2.10;1.50;;;;;;;;;;5111525;28;20038;-63
2023/09/03 09:10:06;;;;;;;1.73;1.30;;;;;;;;;;5092598;28;20111;-63
2023/09/03 09:12:37;;;;;;;1.57;1.30;;;;;;;;;;5091929;28;20032;-63
2023/09/03 09:15:04;;;;;;;3.07;1.77;;;;;;;;;;5092151;28;20043;-64
2023/09/03 09:17:37;;;;;;;2.23;1.50;;;;;;;;;;5105481;28;20039;-63
2023/09/03 09:20:05;;;;;;;2.70;1.73;;;;;;;;;;5107640;28;20027;-63
2023/09/03 09:22:39;;;;;;;2.07;1.70;;;;;;;;;;5107469;28;20016;-64
2023/09/03 09:25:06;;;;;;;1.73;1.30;;;;;;;;;;5107363;28;20034;-64
2023/09/03 09:27:36;;;;;;;3.07;2.03;;;;;;;;;;5072066;28;20479;-64
2023/09/03 09:30:13;;;;;;;2.47;1.90;;;;;;;;;;5071937;28;20024;-63
2023/09/03 09:32:43;;;;;;;3.63;2.07;;;;;;;;;;5072022;28;20515;-64
2023/09/03 09:35:10;;;;;;;4.37;2.23;;;;;;;;;;5071823;28;20021;-64
2023/09/03 09:37:41;;;;;;;2.87;1.50;;;;;;;;;;5111386;28;20092;-63
2023/09/03 09:40:08;;;;;;;4.10;2.07;;;;;;;;;;5107404;28;20020;-63
2023/09/03 09:42:36;;;;;;;3.13;1.57;;;;;;;;;;5107466;28;20028;-63
2023/09/03 09:45:03;;;;;;;2.70;1.83;;;;;;;;;;5107557;28;20386;-63
2023/09/03 09:47:30;;;;;;;2.43;1.43;;;;;;;;;;5088171;28;20024;-64
2023/09/03 09:49:56;;;;;;;2.77;1.97;;;;;;;;;;5091898;28;20083;-63
2023/09/03 09:52:34;;;;;;;2.63;1.73;;;;;;;;;;5096120;28;20103;-63
2023/09/03 09:55:00;;;;;;;2.13;1.73;;;;;;;;;;5096096;28;20485;-63
2023/09/03 09:57:27;;;;;;;2.13;1.40;;;;;;;;;;5114200;28;20373;-63
2023/09/03 10:00:03;;;;;;;2.10;1.70;;;;;;;;;;5114904;28;20027;-63
2023/09/03 10:02:29;;;;;;;2.33;1.57;;;;;;;;;;5110657;28;20012;-64
2023/09/03 10:04:57;;;;;;;6.03;1.93;;;;;;;;;;5110886;28;20031;-64
2023/09/03 10:07:24;;;;;;;3.63;1.77;;;;;;;;;;5092708;28;20020;-63
2023/09/03 10:09:51;;;;;;;2.23;1.43;;;;;;;;;;5091493;28;20024;-64
2023/09/03 10:12:17;;;;;;;2.33;1.30;;;;;;;;;;5095580;28;20107;-63
2023/09/03 10:14:44;;;;;;;2.10;1.50;;;;;;;;;;5095592;28;20031;-63
2023/09/03 10:17:11;;;;;;;1.70;1.40;;;;;;;;;;5110350;28;20027;-63
2023/09/03 10:19:47;;;;;;;2.30;1.70;;;;;;;;;;5116053;27;20470;-63
2023/09/03 10:22:16;;;;;;;2.00;1.40;;;;;;;;;;5114043;28;20040;-63
2023/09/03 10:24:44;;;;;;;3.27;2.03;;;;;;;;;;5109426;28;20061;-64
2023/09/03 10:27:13;;;;;;;2.40;1.23;;;;;;;;;;5094571;28;20028;-63
2023/09/03 10:29:41;;;;;;;2.47;1.73;;;;;;;;;;5089839;28;20104;-63
2023/09/03 10:32:09;;;;;;;2.03;1.40;;;;;;;;;;5091050;28;20032;-64
2023/09/03 10:34:38;;;;;;;2.17;1.67;;;;;;;;;;5095323;28;20073;-63
2023/09/03 10:37:05;;;;;;;1.33;1.10;;;;;;;;;;5109409;28;20032;-63
2023/09/03 10:39:32;;;;;;;4.13;1.73;;;;;;;;;;5115314;28;20028;-63
2023/09/03 10:42:16;;;;;;;2.63;1.40;;;;;;;;;;5115293;28;20040;-63
2023/09/03 10:44:44;;;;;;;1.63;1.20;;;;;;;;;;5113262;28;20410;-64
2023/09/03 10:47:14;;;;;;;3.17;2.23;;;;;;;;;;5094688;28;20403;-63
2023/09/03 10:49:43;;;;;;;2.17;1.57;;;;;;;;;;5090020;28;20375;-63
2023/09/03 10:52:32;;;;;;;1.93;1.57;;;;;;;;;;5089810;28;20103;-63
2023/09/03 10:55:12;;;;;;;2.07;1.57;;;;;;;;;;5092230;28;20027;-63
2023/09/03 10:57:39;;;;;;;3.73;1.23;;;;;;;;;;5113201;28;20031;-63
2023/09/03 11:00:05;;;;;;;2.63;1.73;;;;;;;;;;5115154;28;20016;-63
2023/09/03 11:02:33;;;;;;;1.97;1.33;;;;;;;;;;5114206;28;20137;-63
2023/09/03 11:05:12;;;;;;;2.47;1.67;;;;;;;;;;5115183;28;20020;-63
2023/09/03 11:07:39;;;;;;;3.03;1.70;;;;;;;;;;5092526;28;20039;-63
2023/09/03 11:10:38;;;;;;;2.67;1.63;;;;;;;;;;5089351;28;20020;-63
2023/09/03 11:13:08;;;;;;;3.00;2.03;;;;;;;;;;5044283;28;20475;-63
2023/09/03 11:15:35;;;;;;;2.40;1.83;;;;;;;;;;5089779;28;20020;-63
2023/09/03 11:18:01;;;;;;;3.47;2.13;;;;;;;;;;5103260;28;20020;-63
2023/09/03 11:20:32;;;;;;;3.17;1.97;;;;;;;;;;5094045;28;20028;-63
2023/09/03 11:22:59;;;;;;;2.17;1.80;;;;;;;;;;5093805;28;20479;-63
2023/09/03 11:25:39;;;;;;;1.80;1.37;;;;;;;;;;5094194;28;20016;-63
2023/09/03 11:28:12;;;;;;;2.97;1.70;;;;;;;;;;5073716;28;20100;-63
2023/09/03 11:30:40;;;;;;;2.40;1.60;;;;;;;;;;5068709;28;20025;-63
2023/09/03 11:33:08;;;;;;;3.57;2.07;;;;;;;;;;5068590;28;20037;-63
2023/09/03 11:35:44;;;;;;;2.60;1.63;;;;;;;;;;5068513;28;20025;-63
2023/09/03 11:38:11;;;;;;;4.67;2.13;;;;;;;;;;5075940;28;20055;-63
2023/09/03 11:40:40;;;;;;;2.53;1.73;;;;;;;;;;5114209;28;20045;-63
2023/09/03 11:43:10;;;;;;;4.47;2.43;;;;;;;;;;5114220;28;20022;-64
2023/09/03 11:45:37;;;;;;;19.83;2.30;;;;;;;;;;5113667;28;20023;-63
2023/09/03 11:48:06;;;;;;;3.07;1.97;;;;;;;;;;5113847;28;20370;-63
2023/09/03 11:50:34;;;;;;;2.17;1.60;;;;;;;;;;5105273;28;20039;-63
2023/09/03 11:53:04;;;;;;;1.47;1.13;;;;;;;;;;5088470;28;20032;-63
2023/09/03 11:55:37;;;;;;;6.67;2.17;;;;;;;;;;5088654;28;20066;-63
2023/09/03 11:58:05;;;;;;;2.47;1.40;;;;;;;;;;5088633;28;20024;-64
2023/09/03 12:00:32;;;;;;;3.03;1.80;;;;;;;;;;5088951;28;20039;-63
2023/09/03 12:02:59;;;;;;;2.70;1.37;;;;;;;;;;5094336;28;20110;-63
2023/09/03 12:05:27;;;;;;;2.87;1.73;;;;;;;;;;5093282;28;20020;-63
2023/09/03 12:07:53;;;;;;;4.00;2.07;;;;;;;;;;5093266;28;20028;-63
2023/09/03 12:10:20;;;;;;;2.27;1.57;;;;;;;;;;5093437;28;20074;-63
2023/09/03 12:12:47;;;;;;;1.53;1.30;;;;;;;;;;5091678;28;20506;-63
2023/09/03 12:15:20;;;;;;;3.63;1.80;;;;;;;;;;5096111;28;20024;-63
2023/09/03 12:17:47;;;;;;;5.17;1.77;;;;;;;;;;5108464;28;20027;-63
2023/09/03 12:20:32;;;;;;;2.33;1.57;;;;;;;;;;5108363;28;20550;-63
2023/09/03 12:23:19;;;;;;;3.53;2.35;;;;;;;;;;5109335;28;20406;-63
2023/09/03 12:25:46;;;;;;;2.13;1.53;;;;;;;;;;5113587;28;20484;-64
2023/09/03 12:28:13;;;;;;;2.20;1.77;;;;;;;;;;5097226;28;20028;-63
2023/09/03 12:30:57;;;;;;;2.17;1.60;;;;;;;;;;5093130;28;20571;-63
2023/09/03 12:33:28;;;;;;;3.78;2.25;;;;;;;;;;5091041;28;20493;-64
2023/09/03 12:36:11;;;;;;;2.60;2.13;;;;;;;;;;5090208;28;20066;-64
2023/09/03 12:38:59;;;;;;;1.87;1.40;;;;;;;;;;5088433;28;20364;-64
2023/09/03 12:41:27;;;;;;;1.40;1.30;;;;;;;;;;5108067;28;20019;-63
2023/09/03 12:43:55;;;;;;;2.30;1.43;;;;;;;;;;5108085;28;20058;-63
2023/09/03 12:46:22;;;;;;;3.20;2.07;;;;;;;;;;5111579;28;20028;-64
2023/09/03 12:48:49;;;;;;;3.07;1.93;;;;;;;;;;5113039;28;20031;-64
2023/09/03 12:51:16;;;;;;;3.80;2.03;;;;;;;;;;5111907;28;20037;-63
2023/09/03 12:53:45;;;;;;;2.63;1.80;;;;;;;;;;5112305;28;20430;-63
2023/09/03 12:56:12;;;;;;;2.97;1.60;;;;;;;;;;5113032;28;20027;-63
2023/09/03 12:58:39;;;;;;;1.53;1.17;;;;;;;;;;5108895;28;20024;-63
2023/09/03 13:01:07;;;;;;;2.03;1.50;;;;;;;;;;5107824;28;20015;-63
2023/09/03 13:03:33;;;;;;;1.83;1.33;;;;;;;;;;5101045;28;20145;-63
2023/09/03 13:06:00;;;;;;;1.77;1.37;;;;;;;;;;5087462;28;20027;-63
2023/09/03 13:08:27;;;;;;;2.53;1.67;;;;;;;;;;5090688;28;20109;-63
2023/09/03 13:10:53;;;;;;;2.77;2.00;;;;;;;;;;5092221;28;20402;-63
2023/09/03 13:13:20;;;;;;;2.67;1.87;;;;;;;;;;5096055;28;20443;-64
2023/09/03 13:15:47;;;;;;;3.00;2.00;;;;;;;;;;5112930;28;20024;-64
2023/09/03 13:18:13;;;;;;;3.43;1.90;;;;;;;;;;5112674;28;20028;-63
2023/09/03 13:20:42;;;;;;;3.80;2.10;;;;;;;;;;5108902;28;20055;-63
2023/09/03 13:23:09;;;;;;;3.80;1.93;;;;;;;;;;5106040;28;20386;-63
2023/09/03 13:25:37;;;;;;;5.37;2.70;;;;;;;;;;5089887;28;20378;-64
2023/09/03 13:28:05;;;;;;;2.67;1.73;;;;;;;;;;5091254;28;20072;-64
2023/09/03 13:30:33;;;;;;;2.73;1.73;;;;;;;;;;5094422;28;20020;-63
2023/09/03 13:33:01;;;;;;;8.93;2.97;;;;;;;;;;5096202;28;20085;-63
2023/09/03 13:35:28;;;;;;;4.87;2.93;;;;;;;;;;5101462;28;20024;-63
2023/09/03 13:37:55;;;;;;;2.73;2.17;;;;;;;;;;5116552;28;20420;-63
2023/09/03 13:40:21;;;;;;;2.30;1.53;;;;;;;;;;5116156;28;20027;-64
2023/09/03 13:42:48;;;;;;;1.50;1.10;;;;;;;;;;5112871;28;20028;-64
2023/09/03 13:45:15;;;;;;;1.07;0.93;;;;;;;;;;5108421;28;20034;-64
2023/09/03 13:47:41;;;;;;;2.80;1.70;;;;;;;;;;5091057;28;20050;-63
2023/09/03 13:50:08;;;;;;;3.03;1.50;;;;;;;;;;5090879;28;20074;-64
2023/09/03 13:52:35;;;;;;;1.77;1.20;;;;;;;;;;5093881;28;20474;-64
2023/09/03 13:55:02;;;;;;;2.43;1.63;;;;;;;;;;5095578;28;20020;-65
2023/09/03 13:57:29;;;;;;;2.50;1.57;;;;;;;;;;5116231;28;20062;-64
2023/09/03 13:59:57;;;;;;;1.17;1.00;;;;;;;;;;5116394;28;20027;-62
2023/09/03 14:02:28;;;;;;;2.10;1.57;;;;;;;;;;5116128;28;20024;-62
2023/09/03 14:05:01;;;;;;;1.40;1.03;;;;;;;;;;5112385;28;20101;-62
2023/09/03 14:07:27;;;;;;;4.77;2.57;;;;;;;;;;5107278;28;20039;-63
2023/09/03 14:09:55;;;;;;;1.97;1.43;;;;;;;;;;5091275;28;20039;-65
2023/09/03 14:12:21;;;;;;;1.40;1.20;;;;;;;;;;5090338;28;20058;-64
2023/09/03 14:14:48;;;;;;;5.23;1.77;;;;;;;;;;5093777;28;20076;-64
2023/09/03 14:17:15;;;;;;;2.37;1.27;;;;;;;;;;5095461;28;20020;-64
2023/09/03 14:19:41;;;;;;;2.87;1.27;;;;;;;;;;5095517;28;20050;-64
2023/09/03 14:22:08;;;;;;;0.90;0.80;;;;;;;;;;5114690;28;20108;-64
2023/09/03 14:24:35;;;;;;;3.77;1.97;;;;;;;;;;5115459;28;20030;-64
2023/09/03 14:27:03;;;;;;;3.80;1.40;;;;;;;;;;5112116;28;20478;-64
2023/09/03 14:29:30;;;;;;;3.27;1.67;;;;;;;;;;5110428;28;20024;-64
2023/09/03 14:31:56;;;;;;;1.53;1.00;;;;;;;;;;5100986;28;20031;-64
2023/09/03 14:34:23;;;;;;;3.27;1.37;;;;;;;;;;5090216;28;20082;-64
2023/09/03 14:36:50;;;;;;;3.60;1.10;;;;;;;;;;5092128;28;20020;-64
2023/09/03 14:39:16;;;;;;;2.90;1.30;;;;;;;;;;5094914;28;20019;-63
2023/09/03 14:41:43;;;;;;;1.47;1.30;;;;;;;;;;5101171;28;20063;-63
2023/09/03 14:44:10;;;;;;;1.47;1.13;;;;;;;;;;5115343;28;20024;-64
2023/09/03 14:46:37;;;;;;;1.13;0.90;;;;;;;;;;5115383;28;20431;-63
2023/09/03 14:49:04;;;;;;;1.03;0.73;;;;;;;;;;5111764;28;20514;-64